Terminal Aerodrome Forecast
Issued by NWS New Orleans/Baton Rouge, LA

Home | Current Version | Previous Version | Text Only | Print | Product List | Glossary On
Versions: 1 2 3 4 5 6 7 8 9 10 11 12 13 14 15 16 17 18 19 20 21 22 23 24 25 26 27 28 29 30 31 32 33
000
FTUS44 KLIX 290525
TAFNEW
TAF
KNEW 290525Z 2906/3006 13014KT P6SM BKN015
     FM291500 16024G31KT P6SM OVC015
     FM291900 15027G34KT P6SM OVC050
     FM300400 15019G25KT P6SM OVC015=

USA.gov is the U.S. government's official web portal to all federal, state and local government web resources and services.